Time;durP1;ratioP1;P1;durP2;ratioP2;P2;SDS_P1;SDS_P2;PMS_P1;PMS_P2;Temp;Humidity;BMP_temperature;BMP_pressure;BME280_temperature;BME280_humidity;BME280_pressure;Samples;Min_cycle;Max_cycle;Signal;HPM_P1;HPM_P2
2020/12/12 05:48:22;;;;;;;9.15;6.75;;;;;;;;;;6274626;22;21280;-80
2020/12/12 05:50:48;;;;;;;6.90;5.28;;;;;;;;;;6274944;22;20337;-80
2020/12/12 05:53:17;;;;;;;11.07;6.60;;;;;;;;;;6248718;22;20006;-80
2020/12/12 05:55:45;;;;;;;7.85;5.80;;;;;;;;;;6270997;22;20027;-80
2020/12/12 05:58:12;;;;;;;8.98;6.07;;;;;;;;;;6246161;23;20007;-80
2020/12/12 06:00:38;;;;;;;6.78;4.72;;;;;;;;;;6245646;23;20019;-80
2020/12/12 06:03:06;;;;;;;6.70;5.20;;;;;;;;;;6246414;23;20030;-80
2020/12/12 06:05:33;;;;;;;8.63;5.95;;;;;;;;;;6218899;22;20027;-80
2020/12/12 06:10:18;;;;;;;9.32;6.45;;;;;;;;;;5099607;27;20450;-78
2020/12/12 06:12:47;;;;;;;9.80;6.38;;;;;;;;;;5098504;28;20024;-80
2020/12/12 06:15:18;;;;;;;8.07;5.88;;;;;;;;;;5105734;28;20028;-80
2020/12/12 06:17:44;;;;;;;11.27;6.88;;;;;;;;;;5102772;28;20049;-80
2020/12/12 06:20:13;;;;;;;9.20;6.45;;;;;;;;;;5090195;28;20032;-79
2020/12/12 06:22:40;;;;;;;9.95;5.82;;;;;;;;;;5097123;28;20024;-79
2020/12/12 06:25:07;;;;;;;9.82;5.82;;;;;;;;;;5100838;28;20406;-79
2020/12/12 06:27:37;;;;;;;9.15;6.35;;;;;;;;;;5098986;28;20036;-79
2020/12/12 06:30:06;;;;;;;8.43;5.72;;;;;;;;;;5102552;28;20391;-79
2020/12/12 06:34:51;;;;;;;7.60;4.90;;;;;;;;;;5124594;27;20354;-81
2020/12/12 06:37:28;;;;;;;10.30;6.25;;;;;;;;;;5102683;28;20078;-82
2020/12/12 06:39:54;;;;;;;8.90;5.80;;;;;;;;;;5096636;28;20090;-80
2020/12/12 06:42:37;;;;;;;8.50;5.78;;;;;;;;;;5095136;28;20467;-81
2020/12/12 06:45:18;;;;;;;7.22;5.38;;;;;;;;;;5100599;28;20392;-81
2020/12/12 06:47:48;;;;;;;7.68;5.20;;;;;;;;;;5096578;28;20016;-82
2020/12/12 06:50:15;;;;;;;8.45;5.28;;;;;;;;;;5101115;28;20622;-81
2020/12/12 06:52:42;;;;;;;7.72;5.03;;;;;;;;;;5102095;28;20035;-82
2020/12/12 06:55:09;;;;;;;8.40;5.55;;;;;;;;;;5100172;28;20073;-82
2020/12/12 06:57:42;;;;;;;9.00;5.90;;;;;;;;;;5106043;28;20012;-82
2020/12/12 07:00:41;;;;;;;7.78;5.85;;;;;;;;;;5101873;28;20020;-81
2020/12/12 07:03:08;;;;;;;8.60;5.43;;;;;;;;;;5087367;28;20032;-81
2020/12/12 07:05:35;;;;;;;8.95;5.60;;;;;;;;;;5096460;28;20032;-81
2020/12/12 07:08:05;;;;;;;7.45;5.15;;;;;;;;;;5096631;28;20035;-80
2020/12/12 07:10:35;;;;;;;9.23;5.65;;;;;;;;;;5100486;28;20020;-81
2020/12/12 07:13:01;;;;;;;7.28;5.38;;;;;;;;;;5100007;28;20031;-81
2020/12/12 07:15:28;;;;;;;12.63;7.40;;;;;;;;;;5100123;28;20027;-81
2020/12/12 07:17:55;;;;;;;13.75;9.07;;;;;;;;;;5099729;28;20028;-80
2020/12/12 07:20:21;;;;;;;12.18;7.53;;;;;;;;;;5098612;28;20047;-79
2020/12/12 07:22:48;;;;;;;13.13;7.78;;;;;;;;;;5102408;28;20028;-79
2020/12/12 07:25:14;;;;;;;13.32;9.70;;;;;;;;;;5101670;28;20522;-79
2020/12/12 07:27:40;;;;;;;9.38;7.30;;;;;;;;;;5091440;28;20044;-79
2020/12/12 07:30:05;;;;;;;10.85;6.95;;;;;;;;;;5104562;28;20555;-79
2020/12/12 07:32:32;;;;;;;11.93;7.03;;;;;;;;;;5098173;28;20051;-79
2020/12/12 07:34:58;;;;;;;11.45;6.45;;;;;;;;;;5108305;28;20020;-82
2020/12/12 07:37:24;;;;;;;10.57;7.30;;;;;;;;;;5101223;28;20090;-82
2020/12/12 07:39:52;;;;;;;12.57;8.80;;;;;;;;;;5107298;28;20031;-79
2020/12/12 07:42:21;;;;;;;11.95;8.02;;;;;;;;;;5093709;28;20023;-79
2020/12/12 07:44:56;;;;;;;12.75;7.90;;;;;;;;;;5076907;28;20064;-79
2020/12/12 07:47:22;;;;;;;13.07;8.32;;;;;;;;;;5066800;28;20028;-79
2020/12/12 07:49:48;;;;;;;14.20;9.93;;;;;;;;;;5068728;28;20021;-82
2020/12/12 07:52:14;;;;;;;18.10;13.48;;;;;;;;;;5074685;28;20154;-79
2020/12/12 07:54:47;;;;;;;19.08;13.85;;;;;;;;;;5069491;28;20028;-79
2020/12/12 07:57:14;;;;;;;16.80;11.63;;;;;;;;;;5067991;28;20032;-78
2020/12/12 07:59:41;;;;;;;16.60;10.75;;;;;;;;;;5074266;28;20393;-78
2020/12/12 08:02:08;;;;;;;14.77;9.90;;;;;;;;;;5066741;28;20027;-79
2020/12/12 08:04:34;;;;;;;14.15;9.63;;;;;;;;;;5085875;28;20032;-80
2020/12/12 08:07:20;;;;;;;14.45;9.55;;;;;;;;;;5076870;28;20036;-79
2020/12/12 08:09:47;;;;;;;14.15;9.68;;;;;;;;;;5073441;28;20029;-80
2020/12/12 08:12:18;;;;;;;13.95;8.93;;;;;;;;;;5070269;28;20025;-79
2020/12/12 08:14:46;;;;;;;12.23;8.65;;;;;;;;;;5068535;28;20633;-79
2020/12/12 08:17:12;;;;;;;12.77;8.55;;;;;;;;;;5074611;28;20023;-79
2020/12/12 08:19:46;;;;;;;13.15;8.93;;;;;;;;;;5070402;28;20484;-79
2020/12/12 08:22:16;;;;;;;12.40;8.45;;;;;;;;;;5070711;28;20016;-79
2020/12/12 08:27:08;;;;;;;17.15;12.82;;;;;;;;;;5103406;27;20356;-82
2020/12/12 08:29:49;;;;;;;15.68;11.85;;;;;;;;;;5082594;28;20024;-79
2020/12/12 08:32:34;;;;;;;13.98;11.18;;;;;;;;;;5097703;28;20116;-79
2020/12/12 08:35:13;;;;;;;15.93;12.27;;;;;;;;;;5096281;28;20021;-79
2020/12/12 08:37:39;;;;;;;19.15;12.52;;;;;;;;;;5103480;28;20020;-80
2020/12/12 08:40:09;;;;;;;15.93;11.20;;;;;;;;;;5100374;28;20087;-81
2020/12/12 08:42:35;;;;;;;15.77;11.35;;;;;;;;;;5109911;28;20048;-81
2020/12/12 08:45:14;;;;;;;16.17;10.88;;;;;;;;;;5105489;28;20050;-81
2020/12/12 08:47:40;;;;;;;15.18;10.48;;;;;;;;;;5105108;28;20016;-81
2020/12/12 08:50:06;;;;;;;13.73;10.48;;;;;;;;;;5100315;28;20067;-80
2020/12/12 08:52:32;;;;;;;11.73;9.05;;;;;;;;;;5108425;28;20024;-81
2020/12/12 08:55:01;;;;;;;12.73;8.20;;;;;;;;;;5095966;28;20047;-79
2020/12/12 08:57:27;;;;;;;15.57;9.30;;;;;;;;;;5092658;28;20119;-79
2020/12/12 09:00:00;;;;;;;12.18;8.88;;;;;;;;;;5103188;28;20129;-80
2020/12/12 09:02:26;;;;;;;11.43;7.97;;;;;;;;;;5098147;28;20395;-79
2020/12/12 09:05:08;;;;;;;13.40;9.00;;;;;;;;;;5104835;28;20102;-81
2020/12/12 09:07:34;;;;;;;10.50;7.28;;;;;;;;;;5099514;28;20021;-80
2020/12/12 09:10:12;;;;;;;16.83;8.52;;;;;;;;;;5103131;28;20024;-80
2020/12/12 09:12:45;;;;;;;10.02;6.28;;;;;;;;;;5099739;28;20047;-79
2020/12/12 09:15:11;;;;;;;12.30;8.13;;;;;;;;;;5092141;28;20020;-81
2020/12/12 09:17:37;;;;;;;12.98;7.45;;;;;;;;;;5100186;28;20016;-79
2020/12/12 09:20:06;;;;;;;12.57;8.88;;;;;;;;;;5095182;28;20082;-78
2020/12/12 09:22:32;;;;;;;9.35;6.43;;;;;;;;;;5102864;28;20024;-79
2020/12/12 09:24:57;;;;;;;17.20;10.82;;;;;;;;;;5096379;28;20032;-79
2020/12/12 09:27:23;;;;;;;31.65;20.83;;;;;;;;;;5093538;28;20450;-79
2020/12/12 09:29:49;;;;;;;26.10;17.95;;;;;;;;;;5094020;28;20432;-79
2020/12/12 09:32:15;;;;;;;22.33;14.73;;;;;;;;;;5090016;28;20077;-79
2020/12/12 09:34:41;;;;;;;19.27;13.68;;;;;;;;;;5092961;28;20056;-79
2020/12/12 09:37:07;;;;;;;20.63;13.77;;;;;;;;;;5083587;28;20028;-79
2020/12/12 09:39:33;;;;;;;21.40;13.82;;;;;;;;;;5089594;28;20032;-78
2020/12/12 09:41:59;;;;;;;18.52;13.05;;;;;;;;;;5075529;28;20491;-78
2020/12/12 09:44:26;;;;;;;20.70;14.57;;;;;;;;;;5081344;28;20031;-78
2020/12/12 09:46:52;;;;;;;23.30;15.05;;;;;;;;;;5076712;28;20036;-78
2020/12/12 09:49:18;;;;;;;19.73;13.05;;;;;;;;;;5084789;28;20034;-78
2020/12/12 09:51:47;;;;;;;22.33;14.73;;;;;;;;;;5085244;28;20029;-79
2020/12/12 09:54:13;;;;;;;24.23;16.35;;;;;;;;;;5085113;28;20074;-80
2020/12/12 09:56:39;;;;;;;24.05;16.67;;;;;;;;;;5081327;28;20032;-79
2020/12/12 09:59:05;;;;;;;22.05;15.00;;;;;;;;;;5081557;28;20128;-79
2020/12/12 10:01:31;;;;;;;26.42;18.73;;;;;;;;;;5080217;28;20036;-79
2020/12/12 10:06:16;;;;;;;26.90;17.65;;;;;;;;;;5080891;27;20345;-80
2020/12/12 10:08:42;;;;;;;23.67;16.38;;;;;;;;;;5082274;28;20070;-80
2020/12/12 10:11:08;;;;;;;24.33;16.27;;;;;;;;;;5059906;28;20447;-80
2020/12/12 10:13:34;;;;;;;21.25;15.27;;;;;;;;;;5080186;28;20031;-81
2020/12/12 10:16:01;;;;;;;22.85;16.80;;;;;;;;;;5080661;28;20032;-80
2020/12/12 10:18:27;;;;;;;21.13;15.50;;;;;;;;;;5060057;28;20020;-81
2020/12/12 10:20:54;;;;;;;22.10;15.73;;;;;;;;;;5068341;28;20035;-81
2020/12/12 10:23:20;;;;;;;26.75;17.70;;;;;;;;;;5065612;28;20025;-81
2020/12/12 10:25:46;;;;;;;26.13;18.90;;;;;;;;;;5057718;28;20029;-81
2020/12/12 10:28:12;;;;;;;24.83;16.55;;;;;;;;;;5081918;28;20032;-81
2020/12/12 10:30:38;;;;;;;24.80;17.08;;;;;;;;;;5066643;28;20024;-81
2020/12/12 10:33:04;;;;;;;29.20;18.67;;;;;;;;;;5082239;28;20020;-81
2020/12/12 10:35:30;;;;;;;24.98;16.80;;;;;;;;;;5070257;28;20017;-81
2020/12/12 10:37:57;;;;;;;26.88;18.98;;;;;;;;;;5080483;28;20029;-80
2020/12/12 10:41:00;;;;;;;26.10;18.70;;;;;;;;;;5075045;28;20480;-81
2020/12/12 10:43:15;;;;;;;24.05;17.85;;;;;;;;;;5083079;28;20129;-81
2020/12/12 10:45:42;;;;;;;24.90;16.65;;;;;;;;;;5088943;28;20047;-81
2020/12/12 10:50:27;;;;;;;29.90;20.55;;;;;;;;;;5114221;27;20375;-81
2020/12/12 10:52:52;;;;;;;31.63;23.48;;;;;;;;;;5120952;28;20066;-81
2020/12/12 10:55:19;;;;;;;39.72;27.45;;;;;;;;;;5109463;28;20081;-81
2020/12/12 10:57:45;;;;;;;44.67;30.67;;;;;;;;;;5109863;28;20016;-81
2020/12/12 11:00:11;;;;;;;43.97;29.17;;;;;;;;;;5105906;28;20043;-81
2020/12/12 11:02:37;;;;;;;37.22;27.70;;;;;;;;;;5097872;28;20069;-81
2020/12/12 11:05:04;;;;;;;41.78;27.90;;;;;;;;;;5103158;28;20028;-81
2020/12/12 11:07:30;;;;;;;29.33;21.88;;;;;;;;;;5101347;28;20027;-81
2020/12/12 11:09:56;;;;;;;35.08;25.50;;;;;;;;;;5102932;28;20034;-80
2020/12/12 11:12:22;;;;;;;33.45;23.75;;;;;;;;;;5106477;28;20035;-81
2020/12/12 11:14:53;;;;;;;29.60;21.52;;;;;;;;;;5104581;28;20028;-81
2020/12/12 11:17:19;;;;;;;29.35;21.40;;;;;;;;;;5097539;28;20028;-80
2020/12/12 11:19:45;;;;;;;30.38;19.60;;;;;;;;;;5102484;28;20023;-82
2020/12/12 11:22:11;;;;;;;28.42;20.13;;;;;;;;;;5106862;28;20081;-81
2020/12/12 11:24:42;;;;;;;24.08;17.73;;;;;;;;;;5096602;28;20028;-84
2020/12/12 11:27:36;;;;;;;20.60;14.45;;;;;;;;;;5105696;28;20102;-84
2020/12/12 11:30:04;;;;;;;21.30;15.25;;;;;;;;;;5089971;28;20032;-84
2020/12/12 11:32:30;;;;;;;22.65;14.50;;;;;;;;;;5098282;28;20027;-82
2020/12/12 11:35:03;;;;;;;21.90;13.27;;;;;;;;;;5103369;28;20552;-85
2020/12/12 11:40:20;;;;;;;17.83;12.68;;;;;;;;;;5103889;28;20024;-81
2020/12/12 11:43:42;;;;;;;18.17;13.55;;;;;;;;;;5103664;28;20027;-81
2020/12/12 11:48:20;;;;;;;23.77;12.75;;;;;;;;;;5095624;28;20388;-81
2020/12/12 11:50:46;;;;;;;18.50;12.77;;;;;;;;;;5102637;28;20080;-81
2020/12/12 11:53:11;;;;;;;15.38;10.80;;;;;;;;;;5103044;28;20146;-81
2020/12/12 11:55:37;;;;;;;15.88;12.07;;;;;;;;;;5094558;28;20031;-81
2020/12/12 11:58:03;;;;;;;15.18;10.50;;;;;;;;;;5099156;28;20048;-81
2020/12/12 12:00:29;;;;;;;14.95;10.60;;;;;;;;;;5086134;22;20122;-79
2020/12/12 12:02:55;;;;;;;11.43;7.82;;;;;;;;;;5049491;28;20552;-79
2020/12/12 12:05:21;;;;;;;13.35;7.25;;;;;;;;;;5046077;28;20033;-79
2020/12/12 12:07:50;;;;;;;8.15;6.20;;;;;;;;;;5045007;28;20082;-79
2020/12/12 12:12:42;;;;;;;8.77;5.68;;;;;;;;;;5072946;28;20028;-79
2020/12/12 12:15:08;;;;;;;11.73;5.30;;;;;;;;;;5068943;28;20389;-80
2020/12/12 12:17:34;;;;;;;9.63;6.18;;;;;;;;;;5067979;28;20518;-80
2020/12/12 12:20:00;;;;;;;10.20;5.57;;;;;;;;;;5071828;28;20025;-80
2020/12/12 12:24:46;;;;;;;8.32;4.45;;;;;;;;;;5087156;27;20867;-79
2020/12/12 12:27:12;;;;;;;6.00;3.83;;;;;;;;;;5086299;28;20477;-80
2020/12/12 12:29:38;;;;;;;6.70;4.47;;;;;;;;;;5074632;28;20036;-81
2020/12/12 12:32:04;;;;;;;7.95;5.13;;;;;;;;;;5067990;28;20021;-79
2020/12/12 12:34:30;;;;;;;6.25;3.47;;;;;;;;;;5061059;28;20031;-80
2020/12/12 12:36:56;;;;;;;5.82;3.95;;;;;;;;;;5060660;28;20112;-79
2020/12/12 12:39:22;;;;;;;10.43;4.03;;;;;;;;;;5068519;28;20076;-80
2020/12/12 12:41:50;;;;;;;9.27;4.07;;;;;;;;;;5062433;28;20065;-80
2020/12/12 12:44:16;;;;;;;7.45;3.92;;;;;;;;;;5062357;28;20029;-80
2020/12/12 12:46:44;;;;;;;6.35;4.15;;;;;;;;;;5061748;28;20021;-80
2020/12/12 12:49:10;;;;;;;7.40;5.25;;;;;;;;;;5062277;28;20028;-80
2020/12/12 12:51:38;;;;;;;6.68;4.72;;;;;;;;;;5064091;28;20036;-79
2020/12/12 12:54:04;;;;;;;6.00;4.13;;;;;;;;;;5065519;28;20108;-80
2020/12/12 12:56:30;;;;;;;8.15;5.45;;;;;;;;;;5062984;28;20035;-79
2020/12/12 12:58:56;;;;;;;20.90;11.73;;;;;;;;;;5077892;28;20025;-80
2020/12/12 13:01:23;;;;;;;32.17;18.00;;;;;;;;;;5065616;28;20025;-80
2020/12/12 13:03:49;;;;;;;26.00;17.05;;;;;;;;;;5070422;28;20036;-79
2020/12/12 13:06:22;;;;;;;27.10;18.67;;;;;;;;;;5067010;28;20111;-80
2020/12/12 13:08:48;;;;;;;36.17;21.52;;;;;;;;;;5064336;28;20496;-80
2020/12/12 13:11:15;;;;;;;32.58;21.60;;;;;;;;;;5081324;28;20087;-80
2020/12/12 13:15:59;;;;;;;40.67;27.73;;;;;;;;;;5103611;27;20384;-79
2020/12/12 13:18:33;;;;;;;32.70;22.92;;;;;;;;;;5092093;28;20078;-79
2020/12/12 13:21:05;;;;;;;31.42;21.42;;;;;;;;;;5093891;28;20107;-79
2020/12/12 13:23:31;;;;;;;29.60;21.38;;;;;;;;;;5101534;28;20073;-79
2020/12/12 13:31:04;;;;;;;25.45;18.75;;;;;;;;;;5076484;28;20043;-80
2020/12/12 13:33:30;;;;;;;27.25;17.98;;;;;;;;;;5074398;28;20481;-80
2020/12/12 13:35:56;;;;;;;25.20;16.65;;;;;;;;;;5081202;28;20104;-80
2020/12/12 13:38:22;;;;;;;22.33;15.27;;;;;;;;;;5081867;28;20103;-80
2020/12/12 13:40:50;;;;;;;18.85;12.98;;;;;;;;;;5076840;28;20064;-80
2020/12/12 13:45:35;;;;;;;11.88;8.77;;;;;;;;;;5067329;27;20397;-79
2020/12/12 13:48:01;;;;;;;10.70;7.80;;;;;;;;;;5067172;28;20039;-79
2020/12/12 13:50:27;;;;;;;10.60;6.68;;;;;;;;;;5062060;28;20020;-80
2020/12/12 14:05:41;;;;;;;7.82;5.10;;;;;;;;;;5108185;27;20413;-79
2020/12/12 14:08:09;;;;;;;10.25;5.38;;;;;;;;;;5104526;28;20030;-79
2020/12/12 14:21:48;;;;;;;8.32;6.07;;;;;;;;;;5088977;28;20153;-79
2020/12/12 14:24:14;;;;;;;10.82;6.03;;;;;;;;;;5101438;28;20028;-79
2020/12/12 14:29:24;;;;;;;7.90;5.75;;;;;;;;;;5103539;28;20435;-79
2020/12/12 14:31:52;;;;;;;8.40;4.47;;;;;;;;;;5104473;28;20024;-79
2020/12/12 14:34:18;;;;;;;9.38;5.65;;;;;;;;;;5101705;28;20027;-79
2020/12/12 14:36:45;;;;;;;9.82;6.72;;;;;;;;;;5096892;28;20042;-80
2020/12/12 14:39:10;;;;;;;11.60;7.93;;;;;;;;;;5103818;28;20111;-79
2020/12/12 14:41:38;;;;;;;7.90;5.55;;;;;;;;;;5098831;28;20111;-78
2020/12/12 14:44:04;;;;;;;12.43;8.30;;;;;;;;;;5098609;28;20024;-79
2020/12/12 14:46:30;;;;;;;13.25;7.57;;;;;;;;;;5101174;28;20130;-79
2020/12/12 14:48:56;;;;;;;10.63;6.10;;;;;;;;;;5109201;28;20023;-79
2020/12/12 14:51:22;;;;;;;11.15;6.80;;;;;;;;;;5105731;28;20044;-79
2020/12/12 14:53:48;;;;;;;9.65;5.75;;;;;;;;;;5101087;28;20027;-79
2020/12/12 14:56:14;;;;;;;12.32;7.95;;;;;;;;;;5095985;28;20472;-79
2020/12/12 14:58:40;;;;;;;13.05;7.78;;;;;;;;;;5102273;28;20016;-79
2020/12/12 15:01:09;;;;;;;14.25;8.77;;;;;;;;;;5102082;28;20606;-79
2020/12/12 15:03:35;;;;;;;17.33;10.13;;;;;;;;;;5096210;28;20028;-78
2020/12/12 15:06:00;;;;;;;15.32;8.32;;;;;;;;;;5094020;28;20447;-78
2020/12/12 15:08:26;;;;;;;13.32;8.25;;;;;;;;;;5088863;28;20062;-79
2020/12/12 15:10:52;;;;;;;14.52;8.55;;;;;;;;;;5083356;28;20029;-79
2020/12/12 15:13:18;;;;;;;17.13;9.75;;;;;;;;;;5083397;28;20520;-79
2020/12/12 15:15:44;;;;;;;14.48;8.63;;;;;;;;;;5093828;28;20482;-79
2020/12/12 15:18:10;;;;;;;13.52;8.18;;;;;;;;;;5091887;28;20504;-79
2020/12/12 15:20:41;;;;;;;11.05;6.82;;;;;;;;;;5083184;28;20017;-79
2020/12/12 15:23:07;;;;;;;8.15;5.35;;;;;;;;;;5078856;28;20489;-79
2020/12/12 15:25:34;;;;;;;13.30;6.30;;;;;;;;;;5088402;28;20053;-79
2020/12/12 15:28:00;;;;;;;13.75;8.15;;;;;;;;;;5075573;28;20028;-79
2020/12/12 15:30:29;;;;;;;16.52;7.60;;;;;;;;;;5075186;28;20021;-79
2020/12/12 15:32:55;;;;;;;7.00;4.70;;;;;;;;;;5094032;28;20020;-79
2020/12/12 15:35:22;;;;;;;7.35;3.90;;;;;;;;;;5092307;28;20063;-79
2020/12/12 15:37:48;;;;;;;6.65;3.35;;;;;;;;;;5091911;28;20439;-79
2020/12/12 15:40:13;;;;;;;6.05;3.15;;;;;;;;;;5076961;28;20123;-78
2020/12/12 15:42:39;;;;;;;15.85;5.03;;;;;;;;;;5093208;28;20102;-79
2020/12/12 15:45:05;;;;;;;9.15;5.38;;;;;;;;;;5093197;28;20043;-79
2020/12/12 15:47:31;;;;;;;13.45;5.82;;;;;;;;;;5092642;28;20020;-79
2020/12/12 15:49:58;;;;;;;12.27;5.00;;;;;;;;;;5092275;28;20020;-79
2020/12/12 15:52:24;;;;;;;7.22;3.83;;;;;;;;;;5091769;28;20043;-79
2020/12/12 15:54:50;;;;;;;9.75;4.13;;;;;;;;;;5091709;28;20024;-79
2020/12/12 15:57:16;;;;;;;9.52;2.83;;;;;;;;;;5086638;28;20094;-79
2020/12/12 15:59:43;;;;;;;10.10;3.78;;;;;;;;;;5080492;28;20178;-79
2020/12/12 16:02:09;;;;;;;4.93;3.30;;;;;;;;;;5092695;28;20505;-79
2020/12/12 16:04:35;;;;;;;12.85;8.40;;;;;;;;;;5085137;28;20032;-79
2020/12/12 16:07:02;;;;;;;20.98;10.00;;;;;;;;;;5090816;28;20043;-80
2020/12/12 16:09:29;;;;;;;23.05;11.65;;;;;;;;;;5089543;28;20119;-78
2020/12/12 16:11:55;;;;;;;15.23;9.85;;;;;;;;;;5090782;28;20031;-78
2020/12/12 16:14:25;;;;;;;15.20;8.35;;;;;;;;;;5086525;28;20027;-79
2020/12/12 16:16:51;;;;;;;12.23;8.27;;;;;;;;;;5088626;28;20504;-77
2020/12/12 16:19:17;;;;;;;11.73;6.22;;;;;;;;;;5092163;28;20016;-78
2020/12/12 16:21:43;;;;;;;9.25;4.30;;;;;;;;;;5094075;28;20497;-78
2020/12/12 16:24:09;;;;;;;8.68;4.45;;;;;;;;;;5093406;28;20024;-78
2020/12/12 16:26:35;;;;;;;9.80;4.78;;;;;;;;;;5093692;28;20389;-79
2020/12/12 16:29:01;;;;;;;9.23;6.47;;;;;;;;;;5088943;28;20039;-78
2020/12/12 16:31:27;;;;;;;15.65;6.20;;;;;;;;;;5090531;28;20485;-78
2020/12/12 16:33:53;;;;;;;7.45;4.03;;;;;;;;;;5087673;28;20381;-78
2020/12/12 16:36:19;;;;;;;12.40;7.00;;;;;;;;;;5094512;28;20024;-79
2020/12/12 16:41:04;;;;;;;33.30;14.98;;;;;;;;;;5113326;27;20437;-78
2020/12/12 16:43:30;;;;;;;35.35;14.23;;;;;;;;;;5097604;28;20036;-78
2020/12/12 16:45:56;;;;;;;24.58;10.73;;;;;;;;;;5084538;28;20025;-77
2020/12/12 16:48:22;;;;;;;17.33;8.77;;;;;;;;;;5112983;28;20024;-78
2020/12/12 16:50:48;;;;;;;17.95;9.80;;;;;;;;;;5091090;28;20082;-78
2020/12/12 16:53:14;;;;;;;16.15;9.55;;;;;;;;;;5103998;28;20028;-78
2020/12/12 16:55:40;;;;;;;14.85;7.70;;;;;;;;;;5093478;28;20035;-78
2020/12/12 16:58:07;;;;;;;23.05;9.23;;;;;;;;;;5089799;28;20039;-78
2020/12/12 17:00:35;;;;;;;13.57;6.10;;;;;;;;;;5098417;28;20111;-78
2020/12/12 17:03:01;;;;;;;12.05;6.55;;;;;;;;;;5088415;28;20020;-78
2020/12/12 17:05:27;;;;;;;18.35;9.23;;;;;;;;;;5087324;28;20035;-79
2020/12/12 17:07:55;;;;;;;18.85;9.02;;;;;;;;;;5097082;28;20036;-79
2020/12/12 17:10:21;;;;;;;13.43;7.60;;;;;;;;;;5083895;28;20031;-79
2020/12/12 17:12:49;;;;;;;14.18;5.47;;;;;;;;;;5084310;28;20036;-79
2020/12/12 17:15:14;;;;;;;12.57;7.50;;;;;;;;;;5102951;28;20040;-78
2020/12/12 17:17:43;;;;;;;16.38;7.85;;;;;;;;;;5080730;28;20036;-78
2020/12/12 17:20:09;;;;;;;14.65;8.43;;;;;;;;;;5096911;28;20031;-78
2020/12/12 17:22:35;;;;;;;16.52;7.35;;;;;;;;;;5093389;28;20016;-78
2020/12/12 17:25:01;;;;;;;9.70;4.85;;;;;;;;;;5088517;28;20546;-78
2020/12/12 17:27:27;;;;;;;7.85;4.10;;;;;;;;;;5090072;28;20036;-78
2020/12/12 17:29:53;;;;;;;8.20;4.55;;;;;;;;;;5090245;28;20033;-78
2020/12/12 17:32:19;;;;;;;11.13;5.38;;;;;;;;;;5087908;28;20020;-79
2020/12/12 17:34:45;;;;;;;18.17;10.02;;;;;;;;;;5086682;28;20024;-80
2020/12/12 17:37:11;;;;;;;9.57;6.30;;;;;;;;;;5089737;28;20020;-81
2020/12/12 17:39:36;;;;;;;9.05;5.00;;;;;;;;;;5095761;28;20039;-80
2020/12/12 17:42:02;;;;;;;22.20;10.52;;;;;;;;;;5099668;28;20035;-80
2020/12/12 17:44:28;;;;;;;46.50;22.88;;;;;;;;;;5096836;28;20016;-81
2020/12/12 17:49:12;;;;;;;22.83;12.88;;;;;;;;;;5094511;28;20355;-80
2020/12/12 17:51:39;;;;;;;15.13;7.63;;;;;;;;;;5101547;28;20464;-80
2020/12/12 17:54:06;;;;;;;12.45;7.57;;;;;;;;;;5088208;28;20042;-80
2020/12/12 17:56:32;;;;;;;10.63;5.57;;;;;;;;;;5094416;28;20413;-80
2020/12/12 17:58:58;;;;;;;10.70;6.32;;;;;;;;;;5096058;28;20608;-80
2020/12/12 18:01:24;;;;;;;11.57;5.82;;;;;;;;;;5089861;28;20071;-80
2020/12/12 18:03:50;;;;;;;8.80;4.38;;;;;;;;;;5068015;28;20027;-80
2020/12/12 18:06:16;;;;;;;7.82;4.13;;;;;;;;;;5091916;28;20036;-80
2020/12/12 18:08:42;;;;;;;11.10;4.25;;;;;;;;;;5075191;28;20028;-80
2020/12/12 18:11:08;;;;;;;8.27;4.32;;;;;;;;;;5076144;28;20392;-80
2020/12/12 18:13:35;;;;;;;12.27;6.25;;;;;;;;;;5080983;28;20031;-80
2020/12/12 18:16:01;;;;;;;14.55;7.53;;;;;;;;;;5091637;28;20028;-80
2020/12/12 18:18:27;;;;;;;12.10;7.05;;;;;;;;;;5075344;28;20028;-80
2020/12/12 18:20:53;;;;;;;13.32;7.10;;;;;;;;;;5086859;28;20032;-80
2020/12/12 18:23:19;;;;;;;12.73;7.05;;;;;;;;;;5085422;28;20021;-80
2020/12/12 18:25:45;;;;;;;13.10;6.88;;;;;;;;;;5071971;28;20028;-79
2020/12/12 18:28:11;;;;;;;17.70;7.55;;;;;;;;;;5077965;28;20033;-80
2020/12/12 18:30:37;;;;;;;16.67;6.68;;;;;;;;;;5059294;28;20021;-80
2020/12/12 18:33:03;;;;;;;20.23;8.73;;;;;;;;;;5068026;28;20028;-80
2020/12/12 18:35:32;;;;;;;12.55;5.93;;;;;;;;;;5074705;28;20028;-80
2020/12/12 18:37:59;;;;;;;15.75;6.03;;;;;;;;;;5092203;28;20024;-80
2020/12/12 18:40:25;;;;;;;12.82;5.95;;;;;;;;;;5105467;28;20030;-80
2020/12/12 18:42:59;;;;;;;11.98;6.43;;;;;;;;;;5094961;28;20480;-79
2020/12/12 18:45:25;;;;;;;8.32;4.10;;;;;;;;;;5082777;28;20055;-80
2020/12/12 18:47:52;;;;;;;23.40;6.40;;;;;;;;;;5097395;28;20024;-80
2020/12/12 18:50:18;;;;;;;9.25;4.25;;;;;;;;;;5075636;28;20080;-80
2020/12/12 18:52:44;;;;;;;14.60;6.65;;;;;;;;;;5101089;28;20421;-80
2020/12/12 18:55:10;;;;;;;16.67;5.97;;;;;;;;;;5073522;28;20495;-80
2020/12/12 18:57:36;;;;;;;8.40;4.25;;;;;;;;;;5073939;28;20025;-80
2020/12/12 19:00:03;;;;;;;11.65;4.50;;;;;;;;;;5078164;28;20032;-80
2020/12/12 19:02:28;;;;;;;10.82;4.63;;;;;;;;;;5071987;28;20028;-79
2020/12/12 19:04:54;;;;;;;14.57;7.13;;;;;;;;;;5070749;28;20031;-80
2020/12/12 19:07:20;;;;;;;14.07;7.20;;;;;;;;;;5062462;28;20111;-80
2020/12/12 19:09:46;;;;;;;11.73;7.03;;;;;;;;;;5067610;28;20086;-80
2020/12/12 19:12:15;;;;;;;13.50;7.28;;;;;;;;;;5055885;28;20124;-80
2020/12/12 19:14:41;;;;;;;16.30;9.05;;;;;;;;;;5072681;28;20477;-80
2020/12/12 19:17:07;;;;;;;16.45;8.30;;;;;;;;;;5048400;28;20082;-79
2020/12/12 19:19:33;;;;;;;12.15;7.28;;;;;;;;;;5064629;28;20079;-80
2020/12/12 19:22:01;;;;;;;13.75;6.90;;;;;;;;;;5049935;28;20045;-80
2020/12/12 19:24:29;;;;;;;14.48;7.15;;;;;;;;;;5049610;28;20024;-80
2020/12/12 19:27:05;;;;;;;11.65;6.40;;;;;;;;;;5047977;28;20139;-80
2020/12/12 19:29:32;;;;;;;11.23;5.30;;;;;;;;;;5052123;28;20021;-80
2020/12/12 19:31:59;;;;;;;7.32;5.07;;;;;;;;;;5046608;28;20067;-80
2020/12/12 19:34:25;;;;;;;7.70;5.15;;;;;;;;;;5050963;28;20024;-79
2020/12/12 19:36:51;;;;;;;8.13;4.32;;;;;;;;;;5071982;28;20017;-80
2020/12/12 19:39:18;;;;;;;8.30;4.72;;;;;;;;;;5075624;28;20022;-80
2020/12/12 19:41:44;;;;;;;10.73;5.15;;;;;;;;;;5056610;28;20103;-79
2020/12/12 19:44:10;;;;;;;10.90;4.50;;;;;;;;;;5069719;28;20021;-79
2020/12/12 19:46:36;;;;;;;8.25;5.15;;;;;;;;;;5072294;28;20017;-80
2020/12/12 19:49:03;;;;;;;6.80;4.22;;;;;;;;;;5052643;28;20673;-79
2020/12/12 19:51:29;;;;;;;10.10;4.28;;;;;;;;;;5055717;28;20065;-80
2020/12/12 19:53:56;;;;;;;8.98;4.22;;;;;;;;;;5073163;28;20056;-80
2020/12/12 19:56:23;;;;;;;8.57;4.68;;;;;;;;;;5057291;28;20024;-80
2020/12/12 19:58:49;;;;;;;15.85;4.80;;;;;;;;;;5073491;28;20035;-79
2020/12/12 20:01:15;;;;;;;9.23;4.57;;;;;;;;;;5055115;28;20059;-80
2020/12/12 20:03:41;;;;;;;11.60;5.68;;;;;;;;;;5074037;28;20702;-80
2020/12/12 20:06:07;;;;;;;7.32;4.88;;;;;;;;;;5070891;28;20048;-80
2020/12/12 20:08:34;;;;;;;7.72;5.00;;;;;;;;;;5064009;28;20028;-80
2020/12/12 20:11:00;;;;;;;7.47;5.00;;;;;;;;;;5080246;28;20080;-80
2020/12/12 20:13:26;;;;;;;8.98;4.78;;;;;;;;;;5060795;28;20060;-80
2020/12/12 20:15:52;;;;;;;7.95;5.25;;;;;;;;;;5060962;28;20144;-80
2020/12/12 20:18:19;;;;;;;9.63;5.20;;;;;;;;;;5078320;28;20741;-80
2020/12/12 20:20:46;;;;;;;7.80;4.38;;;;;;;;;;5072224;28;20108;-80
2020/12/12 20:23:12;;;;;;;8.32;5.20;;;;;;;;;;5087964;28;20603;-79
2020/12/12 20:25:38;;;;;;;6.85;4.82;;;;;;;;;;5081023;28;20504;-80
2020/12/12 20:28:05;;;;;;;8.93;4.90;;;;;;;;;;5082372;28;20112;-80
2020/12/12 20:30:31;;;;;;;7.95;4.30;;;;;;;;;;5066461;28;20013;-79
2020/12/12 20:32:58;;;;;;;7.07;4.40;;;;;;;;;;5078111;28;20023;-79
2020/12/12 20:35:24;;;;;;;8.27;4.13;;;;;;;;;;5087838;28;20405;-80
2020/12/12 20:37:51;;;;;;;11.75;5.32;;;;;;;;;;5071576;28;20024;-80
2020/12/12 20:40:17;;;;;;;8.45;4.60;;;;;;;;;;5069622;28;20032;-80
2020/12/12 20:45:02;;;;;;;10.07;5.00;;;;;;;;;;5065180;28;20362;-80
2020/12/12 20:47:28;;;;;;;8.35;5.15;;;;;;;;;;5055389;28;20045;-80
2020/12/12 20:49:54;;;;;;;8.73;4.55;;;;;;;;;;5057537;28;20028;-80
2020/12/12 20:52:20;;;;;;;6.32;3.83;;;;;;;;;;5062030;28;20049;-80
2020/12/12 20:54:46;;;;;;;11.88;5.88;;;;;;;;;;5052015;28;20025;-80
2020/12/12 20:57:12;;;;;;;12.40;6.90;;;;;;;;;;5061414;28;20408;-80
2020/12/12 20:59:38;;;;;;;9.40;5.53;;;;;;;;;;5058519;28;20558;-80
2020/12/12 21:02:04;;;;;;;8.57;4.70;;;;;;;;;;5056690;28;20841;-80
2020/12/12 21:04:30;;;;;;;5.93;3.83;;;;;;;;;;5057560;28;20013;-80
2020/12/12 21:06:56;;;;;;;7.82;5.05;;;;;;;;;;5053335;28;20112;-80
2020/12/12 21:09:22;;;;;;;11.38;5.57;;;;;;;;;;5055789;28;20030;-80
2020/12/12 21:11:48;;;;;;;7.90;4.85;;;;;;;;;;5057407;28;20032;-80
2020/12/12 21:14:14;;;;;;;13.07;5.53;;;;;;;;;;5058211;28;20033;-80
2020/12/12 21:16:40;;;;;;;11.60;5.72;;;;;;;;;;5056221;28;20150;-80
2020/12/12 21:19:06;;;;;;;10.48;5.68;;;;;;;;;;5058244;28;20033;-80
2020/12/12 21:21:38;;;;;;;10.65;5.65;;;;;;;;;;5059844;28;20021;-80
2020/12/12 21:24:05;;;;;;;10.23;5.22;;;;;;;;;;5059949;28;20025;-81